• Join FlightAware (Why Join?)
  • Login
  • US Flag 
09:14AM EST


 

Airport Tracker/Info


-or-


 

Live Flight TrackerFlight Track Log ✈ PDT4106 ✈ 27-May-2013 ✈ KCLT - KPGV

Flight Track Log - Related Links

Times and Time Zones

All times are in EDT time to prevent confusion due to time zone crossing. See the PDT4106 flight status page for this flight to view local times or setup timezone preferences in your user account.

Time Position Orientation Groundspeed Altitude Reporting Facility
EDT Latitude Longitude Course Direction KTS MPH feet Rate Location/Type
10:36PM 35.1950 -80.9331 90° East 133 153 1,300  Level Atlanta Center
10:37PM 35.1831 -80.8725 104° East 164 189 3,100 1,260 Climbing Atlanta Center
10:39PM 35.1833 -80.6267 90° East  Level FlightAware Approximate
10:39PM 35.1933 -80.7856 82° East 186 214 4,900  Level Atlanta Center
10:40PM 35.1874 -80.5126 39° Northeast  Level FlightAware Approximate
10:40PM 35.2003 -80.7422 79° East 203 234 4,900  Level Atlanta Center
10:41PM 35.2000 -80.4033 90° East  Level FlightAware Approximate
10:41PM 35.2022 -80.6583 88° East 240 276 6,100  Level Atlanta Center
10:41PM 35.2011 -80.6150 92° East 209 241 6,900 780 Climbing Atlanta Center
10:42PM 35.2025 -80.5869 87° East 207 238 6,900  Level Atlanta Center
10:42PM 35.2008 -80.5361 92° East 225 259 6,900 300 Level Atlanta Center
10:42PM 35.2025 -80.5133 85° East 237 273 7,200 1,260 Climbing Atlanta Center
10:43PM 35.2028 -80.4575 90° East 228 262 8,200 1,560 Climbing Atlanta Center
10:43PM 35.2064 -80.4369 78° East 226 260 8,800 1,260 Climbing Atlanta Center
10:44PM 35.2031 -80.3939 95° East 222 255 9,500 900 Climbing Atlanta Center
10:45PM 35.2050 -80.3225 88° East 226 260 10,400 960 Climbing Atlanta Center
10:46PM 35.2028 -80.2489 92° East 215 247 11,500 960 Climbing Atlanta Center
10:47PM 35.2047 -80.1753 88° East 215 247 12,400 900 Climbing Atlanta Center
10:49PM 35.2083 -80.0128 88° East 217 250 14,400 900 Climbing Washington Center
10:50PM 35.2117 -79.9264 87° East 223 257 15,300 780 Climbing Washington Center
10:51PM 35.2244 -79.8611 77° East 218 251 16,000 720 Climbing Washington Center
10:52PM 35.2397 -79.7831 77° East 218 251 16,800 480 Climbing Washington Center
10:53PM 35.2525 -79.7125 77° East 223 257 17,000 60 Climbing Washington Center
10:54PM 35.2681 -79.6217 78° East 241 277 17,000  Level Washington Center
10:55PM 35.2833 -79.5411 77° East 257 296 17,000  Level Washington Center
10:56PM 35.2992 -79.4400 79° East 263 303 17,000 -60 Level Washington Center
10:57PM 35.3147 -79.3492 78° East 263 303 16,900 -60 Descending Washington Center
10:58PM 35.3322 -79.2556 77° East 275 316 16,900  Level Washington Center
10:59PM 35.3475 -79.1647 78° East 275 316 16,900  Level Washington Center
11:00PM 35.3622 -79.0889 77° East 275 316 16,900  Level Washington Center
11:01PM 35.3778 -78.9775 80° East 275 316 16,900 -600 Level Washington Center
11:02PM 35.3928 -78.8889 78° East 281 323 15,800 -1,140 Descending Washington Center
11:03PM 35.4081 -78.7903 79° East 288 331 14,700 -1,200 Descending Washington Center
11:04PM 35.4275 -78.6864 77° East 299 344 13,500 -900 Descending Washington Center
11:05PM 35.4469 -78.5775 78° East 305 351 13,000 -300 Descending Washington Center
11:06PM 35.4597 -78.4889 80° East 297 342 13,000  Level Washington Center
11:07PM 35.4764 -78.3925 78° East 297 342 13,000  Level Washington Center
11:08PM 35.4914 -78.2936 79° East 297 342 13,000 -600 Level Washington Center
11:09PM 35.5058 -78.1972 80° East 292 336 11,900 -1,380 Descending Washington Center
11:10PM 35.5225 -78.1008 78° East 292 336 10,300 -1,620 Descending Washington Center
11:11PM 35.5369 -78.0092 79° East 286 329 8,700 -1,500 Descending Washington Center
11:12PM 35.5511 -77.9253 78° East 267 307 7,400 -1,320 Descending Washington Center
11:13PM 35.5633 -77.8364 80° East 262 302 6,100 -1,260 Descending Washington Center
11:14PM 35.5797 -77.7475 77° East 257 296 4,900 -1,320 Descending Washington Center
11:15PM 35.5914 -77.6636 80° East 257 296 3,600 -1,320 Descending Washington Center
11:16PM 35.6053 -77.5847 78° East 250 288 2,300 -960 Descending Washington Center
11:17PM 35.6150 -77.5108 81° East 232 267 1,700 -420 Descending Washington Center
11:18PM 35.6200 -77.4547 84° East 196 226 1,500 -240 Descending Washington Center